sensor_id;sensor_type;location;lat;lon;timestamp;pressure;altitude;pressure_sealevel;temperature;humidity
62849;BME280;48941;49.516;8.286;2023-04-24T00:00:14;99266.00;;;11.50;84.75
62849;BME280;48941;49.516;8.286;2023-04-24T00:02:42;99274.63;;;11.44;84.78
62849;BME280;48941;49.516;8.286;2023-04-24T00:05:13;99267.38;;;11.36;85.05
62849;BME280;48941;49.516;8.286;2023-04-24T00:07:44;99266.84;;;11.33;85.28
62849;BME280;48941;49.516;8.286;2023-04-24T00:10:12;99273.50;;;11.29;85.69
62849;BME280;48941;49.516;8.286;2023-04-24T00:12:40;99260.47;;;11.26;85.77
62849;BME280;48941;49.516;8.286;2023-04-24T00:15:09;99259.09;;;11.22;85.76
62849;BME280;48941;49.516;8.286;2023-04-24T00:17:37;99261.22;;;11.18;85.75
62849;BME280;48941;49.516;8.286;2023-04-24T00:20:06;99254.09;;;11.19;86.07
62849;BME280;48941;49.516;8.286;2023-04-24T00:22:33;99252.94;;;11.21;86.15
62849;BME280;48941;49.516;8.286;2023-04-24T00:25:03;99246.44;;;11.24;85.75
62849;BME280;48941;49.516;8.286;2023-04-24T00:27:32;99254.59;;;11.22;86.15
62849;BME280;48941;49.516;8.286;2023-04-24T00:30:01;99250.94;;;11.23;86.16
62849;BME280;48941;49.516;8.286;2023-04-24T00:32:29;99247.81;;;11.28;85.53
62849;BME280;48941;49.516;8.286;2023-04-24T00:34:57;99242.34;;;11.29;85.34
62849;BME280;48941;49.516;8.286;2023-04-24T00:37:25;99240.50;;;11.30;85.33
62849;BME280;48941;49.516;8.286;2023-04-24T00:39:52;99248.09;;;11.43;84.39
62849;BME280;48941;49.516;8.286;2023-04-24T00:42:22;99241.09;;;11.42;84.59
62849;BME280;48941;49.516;8.286;2023-04-24T00:44:50;99239.09;;;11.44;84.15
62849;BME280;48941;49.516;8.286;2023-04-24T00:47:18;99234.97;;;11.49;84.27
62849;BME280;48941;49.516;8.286;2023-04-24T00:49:46;99244.97;;;11.47;83.86
62849;BME280;48941;49.516;8.286;2023-04-24T00:52:14;99244.28;;;11.45;84.46
62849;BME280;48941;49.516;8.286;2023-04-24T00:54:44;99244.81;;;11.49;84.13
62849;BME280;48941;49.516;8.286;2023-04-24T00:57:12;99236.66;;;11.50;83.82
62849;BME280;48941;49.516;8.286;2023-04-24T00:59:42;99230.31;;;11.51;83.59
62849;BME280;48941;49.516;8.286;2023-04-24T01:02:11;99229.34;;;11.52;83.34
62849;BME280;48941;49.516;8.286;2023-04-24T01:04:39;99224.84;;;11.53;83.38
62849;BME280;48941;49.516;8.286;2023-04-24T01:07:07;99223.00;;;11.53;83.50
62849;BME280;48941;49.516;8.286;2023-04-24T01:09:40;99226.50;;;11.54;83.06
62849;BME280;48941;49.516;8.286;2023-04-24T01:12:08;99228.47;;;11.52;83.34
62849;BME280;48941;49.516;8.286;2023-04-24T01:14:37;99222.47;;;11.50;83.44
62849;BME280;48941;49.516;8.286;2023-04-24T01:17:06;99232.00;;;11.52;82.93
62849;BME280;48941;49.516;8.286;2023-04-24T01:19:35;99242.00;;;11.50;83.43
62849;BME280;48941;49.516;8.286;2023-04-24T01:22:08;99237.84;;;11.56;82.94
62849;BME280;48941;49.516;8.286;2023-04-24T01:24:37;99235.34;;;11.54;83.25
62849;BME280;48941;49.516;8.286;2023-04-24T01:27:05;99232.84;;;11.53;83.19
62849;BME280;48941;49.516;8.286;2023-04-24T01:29:33;99232.97;;;11.51;83.31
62849;BME280;48941;49.516;8.286;2023-04-24T01:32:02;99231.81;;;11.54;83.59
62849;BME280;48941;49.516;8.286;2023-04-24T01:34:30;99221.84;;;11.56;83.74
62849;BME280;48941;49.516;8.286;2023-04-24T01:36:58;99218.88;;;11.59;83.69
62849;BME280;48941;49.516;8.286;2023-04-24T01:39:27;99226.88;;;11.59;83.63
62849;BME280;48941;49.516;8.286;2023-04-24T01:41:55;99231.03;;;11.62;83.73
62849;BME280;48941;49.516;8.286;2023-04-24T01:44:23;99235.69;;;11.60;83.93
62849;BME280;48941;49.516;8.286;2023-04-24T01:46:51;99226.72;;;11.61;83.72
62849;BME280;48941;49.516;8.286;2023-04-24T01:49:20;99236.53;;;11.60;84.22
62849;BME280;48941;49.516;8.286;2023-04-24T01:51:48;99230.22;;;11.61;83.94
62849;BME280;48941;49.516;8.286;2023-04-24T01:54:16;99222.84;;;11.55;84.64
62849;BME280;48941;49.516;8.286;2023-04-24T01:56:45;99228.53;;;11.60;84.18
62849;BME280;48941;49.516;8.286;2023-04-24T01:59:15;99222.22;;;11.61;84.36
62849;BME280;48941;49.516;8.286;2023-04-24T02:01:44;99232.91;;;11.69;86.69
62849;BME280;48941;49.516;8.286;2023-04-24T02:04:12;99226.34;;;11.55;90.20
62849;BME280;48941;49.516;8.286;2023-04-24T02:06:40;99244.81;;;11.49;91.50
62849;BME280;48941;49.516;8.286;2023-04-24T02:09:08;99245.72;;;11.40;93.22
62849;BME280;48941;49.516;8.286;2023-04-24T02:11:37;99250.88;;;11.33;94.50
62849;BME280;48941;49.516;8.286;2023-04-24T02:14:06;99251.00;;;11.31;95.21
62849;BME280;48941;49.516;8.286;2023-04-24T02:16:34;99278.06;;;11.19;96.81
62849;BME280;48941;49.516;8.286;2023-04-24T02:19:03;99276.72;;;11.14;98.08
62849;BME280;48941;49.516;8.286;2023-04-24T02:21:31;99278.16;;;11.09;99.25
62849;BME280;48941;49.516;8.286;2023-04-24T02:23:59;99280.28;;;11.05;99.09
62849;BME280;48941;49.516;8.286;2023-04-24T02:26:27;99275.94;;;11.04;99.85
62849;BME280;48941;49.516;8.286;2023-04-24T02:28:55;99277.78;;;11.04;100.00
62849;BME280;48941;49.516;8.286;2023-04-24T02:31:24;99285.22;;;11.00;100.00
62849;BME280;48941;49.516;8.286;2023-04-24T02:33:52;99285.22;;;11.00;100.00
62849;BME280;48941;49.516;8.286;2023-04-24T02:36:19;99277.22;;;11.00;100.00
62849;BME280;48941;49.516;8.286;2023-04-24T02:38:47;99289.44;;;11.03;100.00
62849;BME280;48941;49.516;8.286;2023-04-24T02:41:15;99297.44;;;11.03;100.00
62849;BME280;48941;49.516;8.286;2023-04-24T02:43:43;99297.44;;;11.03;100.00
62849;BME280;48941;49.516;8.286;2023-04-24T02:46:11;99289.56;;;11.01;100.00
62849;BME280;48941;49.516;8.286;2023-04-24T02:48:40;99293.41;;;10.99;99.21
62849;BME280;48941;49.516;8.286;2023-04-24T02:51:08;99302.50;;;10.96;97.69
62849;BME280;48941;49.516;8.286;2023-04-24T02:53:36;99293.00;;;10.93;96.79
62849;BME280;48941;49.516;8.286;2023-04-24T02:56:04;99297.63;;;10.91;95.36
62849;BME280;48941;49.516;8.286;2023-04-24T02:58:31;99293.59;;;10.87;95.73
62849;BME280;48941;49.516;8.286;2023-04-24T03:00:59;99298.09;;;10.87;96.04
62849;BME280;48941;49.516;8.286;2023-04-24T03:03:27;99288.75;;;10.83;95.86
62849;BME280;48941;49.516;8.286;2023-04-24T03:05:57;99287.38;;;10.79;94.40
62849;BME280;48941;49.516;8.286;2023-04-24T03:08:24;99284.03;;;10.76;94.63
62849;BME280;48941;49.516;8.286;2023-04-24T03:10:52;99281.78;;;10.72;91.72
62849;BME280;48941;49.516;8.286;2023-04-24T03:13:20;99276.66;;;10.70;90.94
62849;BME280;48941;49.516;8.286;2023-04-24T03:15:48;99261.78;;;10.68;91.03
62849;BME280;48941;49.516;8.286;2023-04-24T03:18:15;99263.75;;;10.66;90.91
62849;BME280;48941;49.516;8.286;2023-04-24T03:20:45;99264.91;;;10.63;90.57
62849;BME280;48941;49.516;8.286;2023-04-24T03:23:15;99280.34;;;10.60;90.58
62849;BME280;48941;49.516;8.286;2023-04-24T03:25:42;99281.34;;;10.59;90.76
62849;BME280;48941;49.516;8.286;2023-04-24T03:28:10;99284.44;;;10.54;91.52
62849;BME280;48941;49.516;8.286;2023-04-24T03:30:38;99291.91;;;10.50;91.48
62849;BME280;48941;49.516;8.286;2023-04-24T03:33:05;99299.03;;;10.50;90.39
62849;BME280;48941;49.516;8.286;2023-04-24T03:35:33;99303.66;;;10.48;90.15
62849;BME280;48941;49.516;8.286;2023-04-24T03:38:01;99312.94;;;10.44;89.92
62849;BME280;48941;49.516;8.286;2023-04-24T03:40:31;99307.06;;;10.40;89.53
62849;BME280;48941;49.516;8.286;2023-04-24T03:43:00;99313.53;;;10.38;88.61
62849;BME280;48941;49.516;8.286;2023-04-24T03:45:27;99317.19;;;10.36;87.83
62849;BME280;48941;49.516;8.286;2023-04-24T03:47:55;99313.56;;;10.28;87.51
62849;BME280;48941;49.516;8.286;2023-04-24T03:50:23;99321.28;;;10.31;87.40
62849;BME280;48941;49.516;8.286;2023-04-24T03:52:52;99321.16;;;10.23;87.77
62849;BME280;48941;49.516;8.286;2023-04-24T03:55:20;99330.09;;;10.22;88.24
62849;BME280;48941;49.516;8.286;2023-04-24T03:57:49;99323.41;;;10.17;88.08
62849;BME280;48941;49.516;8.286;2023-04-24T04:00:17;99328.72;;;10.17;88.00
62849;BME280;48941;49.516;8.286;2023-04-24T04:02:45;99329.44;;;10.10;87.50
62849;BME280;48941;49.516;8.286;2023-04-24T04:05:13;99330.88;;;10.04;87.65
62849;BME280;48941;49.516;8.286;2023-04-24T04:07:40;99337.31;;;10.02;88.05
62849;BME280;48941;49.516;8.286;2023-04-24T04:10:08;99344.59;;;10.00;87.60
62849;BME280;48941;49.516;8.286;2023-04-24T04:12:36;99346.72;;;9.96;87.90
62849;BME280;48941;49.516;8.286;2023-04-24T04:15:06;99347.03;;;9.93;87.69
62849;BME280;48941;49.516;8.286;2023-04-24T04:17:34;99354.31;;;9.91;87.47
62849;BME280;48941;49.516;8.286;2023-04-24T04:20:02;99354.44;;;9.89;87.57
62849;BME280;48941;49.516;8.286;2023-04-24T04:22:35;99363.13;;;9.91;87.71
62849;BME280;48941;49.516;8.286;2023-04-24T04:25:03;99369.56;;;9.89;87.35
62849;BME280;48941;49.516;8.286;2023-04-24T04:27:31;99371.53;;;9.87;87.65
62849;BME280;48941;49.516;8.286;2023-04-24T04:29:59;99374.19;;;9.87;87.74
62849;BME280;48941;49.516;8.286;2023-04-24T04:32:29;99381.63;;;9.83;87.79
62849;BME280;48941;49.516;8.286;2023-04-24T04:34:57;99388.75;;;9.83;87.45
62849;BME280;48941;49.516;8.286;2023-04-24T04:37:24;99388.06;;;9.81;87.30
62849;BME280;48941;49.516;8.286;2023-04-24T04:39:52;99390.44;;;9.74;86.95
62849;BME280;48941;49.516;8.286;2023-04-24T04:42:21;99382.06;;;9.69;86.94
62849;BME280;48941;49.516;8.286;2023-04-24T04:44:50;99391.13;;;9.66;86.51
62849;BME280;48941;49.516;8.286;2023-04-24T04:47:17;99392.28;;;9.64;86.72
62849;BME280;48941;49.516;8.286;2023-04-24T04:49:47;99406.81;;;9.60;86.80
62849;BME280;48941;49.516;8.286;2023-04-24T04:52:15;99413.53;;;9.64;86.72
62849;BME280;48941;49.516;8.286;2023-04-24T04:54:43;99416.06;;;9.65;86.00
62849;BME280;48941;49.516;8.286;2023-04-24T04:57:12;99408.66;;;9.69;85.33
62849;BME280;48941;49.516;8.286;2023-04-24T04:59:40;99404.56;;;9.74;83.67
62849;BME280;48941;49.516;8.286;2023-04-24T05:02:09;99410.44;;;9.78;82.84
62849;BME280;48941;49.516;8.286;2023-04-24T05:04:36;99412.13;;;9.79;82.37
62849;BME280;48941;49.516;8.286;2023-04-24T05:07:06;99414.66;;;9.81;81.06
62849;BME280;48941;49.516;8.286;2023-04-24T05:09:33;99434.38;;;9.88;80.09
62849;BME280;48941;49.516;8.286;2023-04-24T05:12:01;99432.41;;;9.90;79.61
62849;BME280;48941;49.516;8.286;2023-04-24T05:14:29;99427.78;;;9.92;79.97
62849;BME280;48941;49.516;8.286;2023-04-24T05:16:57;99429.75;;;9.90;79.34
62849;BME280;48941;49.516;8.286;2023-04-24T05:19:26;99442.06;;;9.91;79.71
62849;BME280;48941;49.516;8.286;2023-04-24T05:21:54;99454.94;;;9.95;78.95
62849;BME280;48941;49.516;8.286;2023-04-24T05:24:23;99453.97;;;9.96;79.07
62849;BME280;48941;49.516;8.286;2023-04-24T05:26:51;99454.25;;;9.93;80.19
62849;BME280;48941;49.516;8.286;2023-04-24T05:29:19;99447.41;;;9.91;80.40
62849;BME280;48941;49.516;8.286;2023-04-24T05:31:46;99458.59;;;9.94;80.55
62849;BME280;48941;49.516;8.286;2023-04-24T05:34:14;99454.50;;;10.00;80.22
62849;BME280;48941;49.516;8.286;2023-04-24T05:36:43;99462.63;;;10.08;79.96
62849;BME280;48941;49.516;8.286;2023-04-24T05:39:11;99464.19;;;10.11;80.66
62849;BME280;48941;49.516;8.286;2023-04-24T05:41:40;99471.03;;;10.13;80.83
62849;BME280;48941;49.516;8.286;2023-04-24T05:44:07;99458.41;;;10.25;79.91
62849;BME280;48941;49.516;8.286;2023-04-24T05:46:35;99464.69;;;10.24;79.27
62849;BME280;48941;49.516;8.286;2023-04-24T05:49:03;99461.47;;;10.30;78.94
62849;BME280;48941;49.516;8.286;2023-04-24T05:51:31;99473.09;;;10.29;78.55
62849;BME280;48941;49.516;8.286;2023-04-24T05:53:59;99470.44;;;10.29;79.04
62849;BME280;48941;49.516;8.286;2023-04-24T05:56:27;99470.31;;;10.41;77.97
62849;BME280;48941;49.516;8.286;2023-04-24T05:58:56;99479.16;;;10.31;78.63
62849;BME280;48941;49.516;8.286;2023-04-24T06:01:24;99473.81;;;10.31;79.75
62849;BME280;48941;49.516;8.286;2023-04-24T06:03:52;99470.19;;;10.32;80.16
62849;BME280;48941;49.516;8.286;2023-04-24T06:06:20;99484.34;;;10.33;79.96
62849;BME280;48941;49.516;8.286;2023-04-24T06:08:48;99485.31;;;10.32;80.39
62849;BME280;48941;49.516;8.286;2023-04-24T06:11:16;99484.59;;;10.40;81.04
62849;BME280;48941;49.516;8.286;2023-04-24T06:13:43;99489.78;;;10.41;80.72
62849;BME280;48941;49.516;8.286;2023-04-24T06:16:13;99492.81;;;10.46;81.15
62849;BME280;48941;49.516;8.286;2023-04-24T06:18:41;99496.34;;;10.47;81.08
62849;BME280;48941;49.516;8.286;2023-04-24T06:21:09;99503.31;;;10.57;81.97
62849;BME280;48941;49.516;8.286;2023-04-24T06:23:37;99505.16;;;10.57;82.53
62849;BME280;48941;49.516;8.286;2023-04-24T06:26:04;99500.78;;;10.56;83.21
62849;BME280;48941;49.516;8.286;2023-04-24T06:28:32;99503.03;;;10.61;83.62
62849;BME280;48941;49.516;8.286;2023-04-24T06:31:00;99501.66;;;10.56;83.91
62849;BME280;48941;49.516;8.286;2023-04-24T06:33:29;99496.47;;;10.55;82.53
62849;BME280;48941;49.516;8.286;2023-04-24T06:35:57;99500.81;;;10.46;83.19
62849;BME280;48941;49.516;8.286;2023-04-24T06:38:25;99498.72;;;10.50;82.90
62849;BME280;48941;49.516;8.286;2023-04-24T06:40:53;99494.28;;;10.41;82.45
62849;BME280;48941;49.516;8.286;2023-04-24T06:43:21;99507.72;;;10.39;82.66
62849;BME280;48941;49.516;8.286;2023-04-24T06:45:49;99508.97;;;10.35;83.46
62849;BME280;48941;49.516;8.286;2023-04-24T06:48:17;99496.66;;;10.34;82.37
62849;BME280;48941;49.516;8.286;2023-04-24T06:50:46;99507.16;;;10.35;82.90
62849;BME280;48941;49.516;8.286;2023-04-24T06:53:14;99497.06;;;10.39;82.78
62849;BME280;48941;49.516;8.286;2023-04-24T06:55:42;99491.53;;;10.60;80.58
62849;BME280;48941;49.516;8.286;2023-04-24T06:58:11;99496.56;;;10.63;80.25
62849;BME280;48941;49.516;8.286;2023-04-24T07:00:39;99500.97;;;10.82;79.77
62849;BME280;48941;49.516;8.286;2023-04-24T07:03:06;99504.50;;;10.83;79.54
62849;BME280;48941;49.516;8.286;2023-04-24T07:05:34;99502.53;;;10.85;79.00
62849;BME280;48941;49.516;8.286;2023-04-24T07:08:06;99515.97;;;10.93;79.64
62849;BME280;48941;49.516;8.286;2023-04-24T07:10:35;99510.03;;;10.99;76.20
62849;BME280;48941;49.516;8.286;2023-04-24T07:13:02;99514.31;;;11.10;77.13
62849;BME280;48941;49.516;8.286;2023-04-24T07:15:30;99503.63;;;11.20;77.70
62849;BME280;48941;49.516;8.286;2023-04-24T07:17:58;99514.91;;;11.31;76.25
62849;BME280;48941;49.516;8.286;2023-04-24T07:20:30;99511.06;;;11.44;74.05
62849;BME280;48941;49.516;8.286;2023-04-24T07:22:58;99513.38;;;11.56;73.57
62849;BME280;48941;49.516;8.286;2023-04-24T07:25:27;99528.78;;;11.63;70.38
62849;BME280;48941;49.516;8.286;2023-04-24T07:27:55;99523.50;;;11.71;70.46
62849;BME280;48941;49.516;8.286;2023-04-24T07:30:23;99522.00;;;11.86;70.65
62849;BME280;48941;49.516;8.286;2023-04-24T07:32:51;99520.28;;;11.95;71.10
62849;BME280;48941;49.516;8.286;2023-04-24T07:35:19;99520.81;;;11.99;68.54
62849;BME280;48941;49.516;8.286;2023-04-24T07:37:47;99536.13;;;11.97;68.83
62849;BME280;48941;49.516;8.286;2023-04-24T07:40:15;99547.72;;;12.05;68.93
62849;BME280;48941;49.516;8.286;2023-04-24T07:42:45;99555.56;;;12.25;69.90
62849;BME280;48941;49.516;8.286;2023-04-24T07:45:15;99552.50;;;12.38;69.46
62849;BME280;48941;49.516;8.286;2023-04-24T07:47:43;99542.41;;;12.49;68.73
62849;BME280;48941;49.516;8.286;2023-04-24T07:50:12;99558.72;;;12.64;68.62
62849;BME280;48941;49.516;8.286;2023-04-24T07:52:40;99548.66;;;12.84;66.08
62849;BME280;48941;49.516;8.286;2023-04-24T07:55:08;99548.00;;;12.90;65.10
62849;BME280;48941;49.516;8.286;2023-04-24T07:57:36;99555.78;;;13.10;64.81
62849;BME280;48941;49.516;8.286;2023-04-24T08:00:08;99544.16;;;13.27;64.28
62849;BME280;48941;49.516;8.286;2023-04-24T08:02:36;99547.09;;;13.34;62.05
62849;BME280;48941;49.516;8.286;2023-04-24T08:05:05;99544.94;;;13.46;60.37
62849;BME280;48941;49.516;8.286;2023-04-24T08:07:33;99559.59;;;13.33;59.75
62849;BME280;48941;49.516;8.286;2023-04-24T08:10:01;99571.56;;;13.21;59.80
62849;BME280;48941;49.516;8.286;2023-04-24T08:12:29;99577.00;;;13.11;60.35
62849;BME280;48941;49.516;8.286;2023-04-24T08:14:57;99580.59;;;12.94;59.76
62849;BME280;48941;49.516;8.286;2023-04-24T08:17:26;99584.16;;;12.77;58.64
62849;BME280;48941;49.516;8.286;2023-04-24T08:19:54;99579.41;;;12.88;59.91
62849;BME280;48941;49.516;8.286;2023-04-24T08:22:27;99582.16;;;13.05;61.55
62849;BME280;48941;49.516;8.286;2023-04-24T08:24:55;99578.28;;;12.99;60.75
62849;BME280;48941;49.516;8.286;2023-04-24T08:27:23;99588.00;;;13.00;60.26
62849;BME280;48941;49.516;8.286;2023-04-24T08:29:52;99588.50;;;13.04;59.54
62849;BME280;48941;49.516;8.286;2023-04-24T08:32:20;99603.03;;;13.01;59.02
62849;BME280;48941;49.516;8.286;2023-04-24T08:34:51;99606.88;;;12.99;60.83
62849;BME280;48941;49.516;8.286;2023-04-24T08:37:19;99618.53;;;12.98;60.81
62849;BME280;48941;49.516;8.286;2023-04-24T08:39:47;99606.28;;;12.87;61.12
62849;BME280;48941;49.516;8.286;2023-04-24T08:42:17;99607.75;;;12.81;60.74
62849;BME280;48941;49.516;8.286;2023-04-24T08:44:45;99615.13;;;12.87;60.51
62849;BME280;48941;49.516;8.286;2023-04-24T08:47:13;99610.63;;;12.88;61.10
62849;BME280;48941;49.516;8.286;2023-04-24T08:49:42;99612.31;;;12.89;61.51
62849;BME280;48941;49.516;8.286;2023-04-24T08:52:13;99609.47;;;12.90;60.97
62849;BME280;48941;49.516;8.286;2023-04-24T08:54:41;99618.88;;;12.94;61.02
62849;BME280;48941;49.516;8.286;2023-04-24T08:57:12;99624.78;;;12.80;60.78
62849;BME280;48941;49.516;8.286;2023-04-24T08:59:42;99614.53;;;12.75;61.33
62849;BME280;48941;49.516;8.286;2023-04-24T09:02:14;99619.00;;;12.67;62.49
62849;BME280;48941;49.516;8.286;2023-04-24T09:04:43;99622.66;;;12.66;61.50
62849;BME280;48941;49.516;8.286;2023-04-24T09:07:14;99628.88;;;12.92;61.94
62849;BME280;48941;49.516;8.286;2023-04-24T09:09:44;99620.44;;;13.31;61.37
62849;BME280;48941;49.516;8.286;2023-04-24T09:12:12;99634.44;;;13.60;58.35
62849;BME280;48941;49.516;8.286;2023-04-24T09:14:40;99634.44;;;13.60;57.93
62849;BME280;48941;49.516;8.286;2023-04-24T09:17:11;99632.31;;;13.71;58.44
62849;BME280;48941;49.516;8.286;2023-04-24T09:19:40;99633.84;;;13.74;58.51
62849;BME280;48941;49.516;8.286;2023-04-24T09:22:09;99635.03;;;13.88;58.11
62849;BME280;48941;49.516;8.286;2023-04-24T09:24:39;99631.09;;;14.08;58.01
62849;BME280;48941;49.516;8.286;2023-04-24T09:27:07;99630.41;;;13.98;56.87
62849;BME280;48941;49.516;8.286;2023-04-24T09:29:36;99646.78;;;13.95;57.38
62849;BME280;48941;49.516;8.286;2023-04-24T09:32:18;99652.91;;;13.79;55.21
62849;BME280;48941;49.516;8.286;2023-04-24T09:34:48;99649.09;;;13.47;55.60
62849;BME280;48941;49.516;8.286;2023-04-24T09:37:28;99653.19;;;13.33;57.36
62849;BME280;48941;49.516;8.286;2023-04-24T09:40:12;99667.31;;;13.26;57.58
62849;BME280;48941;49.516;8.286;2023-04-24T09:42:43;99669.59;;;13.30;58.12
62849;BME280;48941;49.516;8.286;2023-04-24T09:45:12;99670.59;;;13.11;58.21
62849;BME280;48941;49.516;8.286;2023-04-24T09:47:41;99666.69;;;13.06;58.34
62849;BME280;48941;49.516;8.286;2023-04-24T09:50:11;99675.31;;;13.18;59.05
62849;BME280;48941;49.516;8.286;2023-04-24T09:52:41;99665.97;;;13.22;58.57
62849;BME280;48941;49.516;8.286;2023-04-24T09:55:18;99670.75;;;13.62;59.00
62849;BME280;48941;49.516;8.286;2023-04-24T09:57:55;99670.97;;;13.77;57.52
62849;BME280;48941;49.516;8.286;2023-04-24T10:00:26;99672.97;;;13.75;57.35
62849;BME280;48941;49.516;8.286;2023-04-24T10:02:58;99673.44;;;13.62;57.05
62849;BME280;48941;49.516;8.286;2023-04-24T10:05:28;99680.59;;;13.62;57.26
62849;BME280;48941;49.516;8.286;2023-04-24T10:08:00;99672.66;;;13.78;55.99
62849;BME280;48941;49.516;8.286;2023-04-24T10:10:30;99666.56;;;14.02;55.04
62849;BME280;48941;49.516;8.286;2023-04-24T10:12:59;99673.66;;;14.36;56.31
62849;BME280;48941;49.516;8.286;2023-04-24T10:15:27;99673.72;;;14.69;54.66
62849;BME280;48941;49.516;8.286;2023-04-24T10:17:57;99678.41;;;14.83;54.21
62849;BME280;48941;49.516;8.286;2023-04-24T10:20:28;99670.53;;;14.82;54.30
62849;BME280;48941;49.516;8.286;2023-04-24T10:22:57;99681.41;;;15.05;54.80
62849;BME280;48941;49.516;8.286;2023-04-24T10:25:27;99676.22;;;15.20;52.05
62849;BME280;48941;49.516;8.286;2023-04-24T10:27:57;99678.88;;;15.28;52.43
62849;BME280;48941;49.516;8.286;2023-04-24T10:30:27;99685.38;;;15.33;51.41
62849;BME280;48941;49.516;8.286;2023-04-24T10:32:55;99685.56;;;15.32;52.59
62849;BME280;48941;49.516;8.286;2023-04-24T10:35:23;99685.66;;;15.55;51.37
62849;BME280;48941;49.516;8.286;2023-04-24T10:37:56;99692.00;;;15.70;50.09
62849;BME280;48941;49.516;8.286;2023-04-24T10:40:26;99686.44;;;15.88;49.36
62849;BME280;48941;49.516;8.286;2023-04-24T10:42:56;99692.34;;;15.84;48.49
62849;BME280;48941;49.516;8.286;2023-04-24T10:45:25;99689.53;;;16.08;49.00
62849;BME280;48941;49.516;8.286;2023-04-24T10:47:56;99700.13;;;16.02;48.79
62849;BME280;48941;49.516;8.286;2023-04-24T10:50:29;99703.75;;;16.17;48.45
62849;BME280;48941;49.516;8.286;2023-04-24T10:53:05;99699.00;;;16.50;47.48
62849;BME280;48941;49.516;8.286;2023-04-24T10:55:41;99707.41;;;16.56;47.67
62849;BME280;48941;49.516;8.286;2023-04-24T10:58:11;99703.09;;;16.69;47.81
62849;BME280;48941;49.516;8.286;2023-04-24T11:00:40;99718.25;;;16.94;46.56
62849;BME280;48941;49.516;8.286;2023-04-24T11:03:22;99709.91;;;16.80;47.09
62849;BME280;48941;49.516;8.286;2023-04-24T11:05:59;99725.78;;;16.67;47.22
62849;BME280;48941;49.516;8.286;2023-04-24T11:08:29;99726.44;;;16.69;47.77
62849;BME280;48941;49.516;8.286;2023-04-24T11:10:59;99723.75;;;16.69;48.15
62849;BME280;48941;49.516;8.286;2023-04-24T11:14:02;99730.97;;;16.68;46.64
62849;BME280;48941;49.516;8.286;2023-04-24T11:16:31;99720.78;;;16.64;46.31
62849;BME280;48941;49.516;8.286;2023-04-24T11:19:02;99727.63;;;16.66;46.48
62849;BME280;48941;49.516;8.286;2023-04-24T11:21:41;99722.88;;;16.45;45.29
62849;BME280;48941;49.516;8.286;2023-04-24T11:24:26;99732.47;;;16.17;46.28
62849;BME280;48941;49.516;8.286;2023-04-24T11:26:57;99727.69;;;16.27;46.04
62849;BME280;48941;49.516;8.286;2023-04-24T11:29:43;99728.31;;;16.06;45.06
62849;BME280;48941;49.516;8.286;2023-04-24T11:32:19;99749.91;;;15.73;46.48
62849;BME280;48941;49.516;8.286;2023-04-24T11:34:48;99740.19;;;15.56;47.35
62849;BME280;48941;49.516;8.286;2023-04-24T11:37:16;99736.22;;;15.27;46.82
62849;BME280;48941;49.516;8.286;2023-04-24T11:39:44;99735.56;;;14.92;48.08
62849;BME280;48941;49.516;8.286;2023-04-24T11:42:14;99728.34;;;14.68;49.78
62849;BME280;48941;49.516;8.286;2023-04-24T11:44:43;99744.75;;;14.65;49.77
62849;BME280;48941;49.516;8.286;2023-04-24T11:47:14;99730.31;;;14.58;50.03
62849;BME280;48941;49.516;8.286;2023-04-24T11:49:41;99736.22;;;14.94;50.35
62849;BME280;48941;49.516;8.286;2023-04-24T11:52:09;99719.28;;;15.26;49.29
62849;BME280;48941;49.516;8.286;2023-04-24T11:54:38;99730.47;;;15.54;49.23
62849;BME280;48941;49.516;8.286;2023-04-24T11:57:13;99723.56;;;15.77;48.44
62849;BME280;48941;49.516;8.286;2023-04-24T11:59:41;99731.38;;;15.95;47.83
62849;BME280;48941;49.516;8.286;2023-04-24T12:02:21;99726.50;;;16.29;47.84
62849;BME280;48941;49.516;8.286;2023-04-24T12:04:49;99741.03;;;16.43;46.39
62849;BME280;48941;49.516;8.286;2023-04-24T12:07:18;99730.81;;;16.70;46.65
62849;BME280;48941;49.516;8.286;2023-04-24T12:09:47;99729.13;;;16.69;46.13
62849;BME280;48941;49.516;8.286;2023-04-24T12:12:18;99742.09;;;16.65;46.24
62849;BME280;48941;49.516;8.286;2023-04-24T12:14:49;99732.63;;;16.78;46.23
62849;BME280;48941;49.516;8.286;2023-04-24T12:17:22;99748.94;;;16.99;45.31
62849;BME280;48941;49.516;8.286;2023-04-24T12:19:58;99741.94;;;17.13;45.17
62849;BME280;48941;49.516;8.286;2023-04-24T12:22:28;99752.25;;;17.09;45.32
62849;BME280;48941;49.516;8.286;2023-04-24T12:24:57;99757.81;;;17.23;45.22
62849;BME280;48941;49.516;8.286;2023-04-24T12:27:25;99749.16;;;17.12;44.45
62849;BME280;48941;49.516;8.286;2023-04-24T12:29:53;99758.06;;;17.13;44.75
62849;BME280;48941;49.516;8.286;2023-04-24T12:32:22;99754.41;;;17.29;43.98
62849;BME280;48941;49.516;8.286;2023-04-24T12:34:54;99741.81;;;17.44;44.00
62849;BME280;48941;49.516;8.286;2023-04-24T12:37:25;99746.03;;;17.62;43.29
62849;BME280;48941;49.516;8.286;2023-04-24T12:40:04;99746.47;;;17.50;43.40
62849;BME280;48941;49.516;8.286;2023-04-24T12:42:33;99742.78;;;17.51;42.90
62849;BME280;48941;49.516;8.286;2023-04-24T12:45:03;99750.88;;;17.28;43.69
62849;BME280;48941;49.516;8.286;2023-04-24T12:47:32;99762.34;;;17.60;43.74
62849;BME280;48941;49.516;8.286;2023-04-24T12:50:01;99763.66;;;17.64;42.80
62849;BME280;48941;49.516;8.286;2023-04-24T12:52:30;99763.44;;;17.36;43.15
62849;BME280;48941;49.516;8.286;2023-04-24T12:54:59;99768.00;;;17.12;43.95
62849;BME280;48941;49.516;8.286;2023-04-24T12:57:29;99775.94;;;16.83;43.66
62849;BME280;48941;49.516;8.286;2023-04-24T12:59:58;99773.13;;;16.76;43.73
62849;BME280;48941;49.516;8.286;2023-04-24T13:02:28;99772.38;;;16.90;44.85
62849;BME280;48941;49.516;8.286;2023-04-24T13:04:58;99768.72;;;17.06;45.01
62849;BME280;48941;49.516;8.286;2023-04-24T13:07:26;99768.19;;;17.11;44.66
62849;BME280;48941;49.516;8.286;2023-04-24T13:09:56;99768.63;;;17.00;44.78